sensor_id;sensor_type;location;lat;lon;timestamp;P1;durP1;ratioP1;P2;durP2;ratioP2
43248;SDS011;29216;51.248;6.808;2023-12-14T00:00:29;42.72;;;22.83;;
43248;SDS011;29216;51.248;6.808;2023-12-14T00:02:56;48.53;;;23.50;;
43248;SDS011;29216;51.248;6.808;2023-12-14T00:05:22;45.83;;;24.23;;
43248;SDS011;29216;51.248;6.808;2023-12-14T00:07:48;46.63;;;24.42;;
43248;SDS011;29216;51.248;6.808;2023-12-14T00:10:14;54.53;;;24.95;;
43248;SDS011;29216;51.248;6.808;2023-12-14T00:12:41;48.10;;;23.65;;
43248;SDS011;29216;51.248;6.808;2023-12-14T00:15:07;49.25;;;24.15;;
43248;SDS011;29216;51.248;6.808;2023-12-14T00:17:33;52.53;;;25.42;;
43248;SDS011;29216;51.248;6.808;2023-12-14T00:19:59;46.97;;;22.83;;
43248;SDS011;29216;51.248;6.808;2023-12-14T00:22:25;44.95;;;24.42;;
43248;SDS011;29216;51.248;6.808;2023-12-14T00:24:51;47.65;;;23.85;;
43248;SDS011;29216;51.248;6.808;2023-12-14T00:27:17;47.55;;;23.92;;
43248;SDS011;29216;51.248;6.808;2023-12-14T00:29:43;44.78;;;22.85;;
43248;SDS011;29216;51.248;6.808;2023-12-14T00:32:09;43.55;;;22.52;;
43248;SDS011;29216;51.248;6.808;2023-12-14T00:34:35;41.13;;;20.55;;
43248;SDS011;29216;51.248;6.808;2023-12-14T00:37:01;38.60;;;22.10;;
43248;SDS011;29216;51.248;6.808;2023-12-14T00:39:27;35.33;;;21.08;;
43248;SDS011;29216;51.248;6.808;2023-12-14T00:41:53;40.03;;;20.63;;
43248;SDS011;29216;51.248;6.808;2023-12-14T00:44:19;40.97;;;21.45;;
43248;SDS011;29216;51.248;6.808;2023-12-14T00:46:45;39.65;;;19.45;;
43248;SDS011;29216;51.248;6.808;2023-12-14T00:49:11;36.05;;;20.23;;
43248;SDS011;29216;51.248;6.808;2023-12-14T00:51:37;36.53;;;19.92;;
43248;SDS011;29216;51.248;6.808;2023-12-14T00:54:03;40.33;;;20.38;;
43248;SDS011;29216;51.248;6.808;2023-12-14T00:56:29;35.65;;;20.58;;
43248;SDS011;29216;51.248;6.808;2023-12-14T00:58:55;39.92;;;21.50;;
43248;SDS011;29216;51.248;6.808;2023-12-14T01:01:21;30.80;;;19.13;;
43248;SDS011;29216;51.248;6.808;2023-12-14T01:03:47;35.00;;;20.20;;
43248;SDS011;29216;51.248;6.808;2023-12-14T01:06:13;35.25;;;20.50;;
43248;SDS011;29216;51.248;6.808;2023-12-14T01:08:39;35.92;;;18.73;;
43248;SDS011;29216;51.248;6.808;2023-12-14T01:11:05;35.80;;;20.33;;
43248;SDS011;29216;51.248;6.808;2023-12-14T01:13:32;38.97;;;20.60;;
43248;SDS011;29216;51.248;6.808;2023-12-14T01:15:58;34.92;;;18.27;;
43248;SDS011;29216;51.248;6.808;2023-12-14T01:18:24;36.08;;;19.63;;
43248;SDS011;29216;51.248;6.808;2023-12-14T01:20:50;35.00;;;18.98;;
43248;SDS011;29216;51.248;6.808;2023-12-14T01:23:16;36.20;;;20.52;;
43248;SDS011;29216;51.248;6.808;2023-12-14T01:25:42;38.30;;;21.23;;
43248;SDS011;29216;51.248;6.808;2023-12-14T01:28:08;37.28;;;21.10;;
43248;SDS011;29216;51.248;6.808;2023-12-14T01:30:34;42.70;;;22.85;;
43248;SDS011;29216;51.248;6.808;2023-12-14T01:33:00;41.42;;;21.77;;
43248;SDS011;29216;51.248;6.808;2023-12-14T01:35:26;36.00;;;20.20;;
43248;SDS011;29216;51.248;6.808;2023-12-14T01:37:54;41.53;;;21.00;;
43248;SDS011;29216;51.248;6.808;2023-12-14T01:40:20;34.65;;;19.65;;
43248;SDS011;29216;51.248;6.808;2023-12-14T01:42:46;33.53;;;19.60;;
43248;SDS011;29216;51.248;6.808;2023-12-14T01:45:12;33.45;;;19.30;;
43248;SDS011;29216;51.248;6.808;2023-12-14T01:47:41;32.35;;;19.55;;
43248;SDS011;29216;51.248;6.808;2023-12-14T01:50:07;34.95;;;19.65;;
43248;SDS011;29216;51.248;6.808;2023-12-14T01:52:33;33.15;;;19.30;;
43248;SDS011;29216;51.248;6.808;2023-12-14T01:54:58;29.27;;;17.77;;
43248;SDS011;29216;51.248;6.808;2023-12-14T01:57:25;33.30;;;19.75;;
43248;SDS011;29216;51.248;6.808;2023-12-14T01:59:51;32.38;;;18.73;;
43248;SDS011;29216;51.248;6.808;2023-12-14T02:02:16;32.95;;;18.65;;
43248;SDS011;29216;51.248;6.808;2023-12-14T02:04:43;29.80;;;18.13;;
43248;SDS011;29216;51.248;6.808;2023-12-14T02:07:09;28.27;;;17.52;;
43248;SDS011;29216;51.248;6.808;2023-12-14T02:09:35;29.77;;;19.00;;
43248;SDS011;29216;51.248;6.808;2023-12-14T02:12:01;25.88;;;17.45;;
43248;SDS011;29216;51.248;6.808;2023-12-14T02:14:27;25.55;;;18.55;;
43248;SDS011;29216;51.248;6.808;2023-12-14T02:16:53;26.08;;;16.88;;
43248;SDS011;29216;51.248;6.808;2023-12-14T02:19:19;29.52;;;17.52;;
43248;SDS011;29216;51.248;6.808;2023-12-14T02:21:45;25.52;;;16.75;;
43248;SDS011;29216;51.248;6.808;2023-12-14T02:24:11;22.30;;;15.52;;
43248;SDS011;29216;51.248;6.808;2023-12-14T02:26:37;21.63;;;14.27;;
43248;SDS011;29216;51.248;6.808;2023-12-14T02:29:03;21.45;;;15.02;;
43248;SDS011;29216;51.248;6.808;2023-12-14T02:31:29;18.23;;;13.23;;
43248;SDS011;29216;51.248;6.808;2023-12-14T02:33:54;19.15;;;13.27;;
43248;SDS011;29216;51.248;6.808;2023-12-14T02:36:20;15.05;;;11.73;;
43248;SDS011;29216;51.248;6.808;2023-12-14T02:38:46;18.02;;;12.20;;
43248;SDS011;29216;51.248;6.808;2023-12-14T02:41:12;15.98;;;11.32;;
43248;SDS011;29216;51.248;6.808;2023-12-14T02:43:38;23.20;;;11.45;;
43248;SDS011;29216;51.248;6.808;2023-12-14T02:46:05;14.82;;;10.48;;
43248;SDS011;29216;51.248;6.808;2023-12-14T02:48:31;14.18;;;10.27;;
43248;SDS011;29216;51.248;6.808;2023-12-14T02:50:57;15.90;;;11.07;;
43248;SDS011;29216;51.248;6.808;2023-12-14T02:53:25;15.63;;;11.63;;
43248;SDS011;29216;51.248;6.808;2023-12-14T02:55:51;14.55;;;11.13;;
43248;SDS011;29216;51.248;6.808;2023-12-14T02:58:18;15.38;;;11.40;;
43248;SDS011;29216;51.248;6.808;2023-12-14T03:00:44;14.50;;;11.70;;
43248;SDS011;29216;51.248;6.808;2023-12-14T03:03:10;15.25;;;11.68;;
43248;SDS011;29216;51.248;6.808;2023-12-14T03:05:36;17.85;;;12.05;;
43248;SDS011;29216;51.248;6.808;2023-12-14T03:08:02;16.75;;;12.68;;
43248;SDS011;29216;51.248;6.808;2023-12-14T03:10:28;25.10;;;15.18;;
43248;SDS011;29216;51.248;6.808;2023-12-14T03:12:54;19.92;;;13.75;;
43248;SDS011;29216;51.248;6.808;2023-12-14T03:15:20;22.38;;;15.45;;
43248;SDS011;29216;51.248;6.808;2023-12-14T03:17:47;22.58;;;15.65;;
43248;SDS011;29216;51.248;6.808;2023-12-14T03:20:13;23.17;;;16.05;;
43248;SDS011;29216;51.248;6.808;2023-12-14T03:22:39;22.50;;;15.23;;
43248;SDS011;29216;51.248;6.808;2023-12-14T03:25:05;21.60;;;15.30;;
43248;SDS011;29216;51.248;6.808;2023-12-14T03:27:32;20.23;;;14.32;;
43248;SDS011;29216;51.248;6.808;2023-12-14T03:29:58;22.60;;;14.77;;
43248;SDS011;29216;51.248;6.808;2023-12-14T03:32:24;25.52;;;15.68;;
43248;SDS011;29216;51.248;6.808;2023-12-14T03:34:49;26.00;;;16.00;;
43248;SDS011;29216;51.248;6.808;2023-12-14T03:37:15;26.02;;;15.55;;
43248;SDS011;29216;51.248;6.808;2023-12-14T03:39:41;23.05;;;16.27;;
43248;SDS011;29216;51.248;6.808;2023-12-14T03:42:07;24.80;;;16.60;;
43248;SDS011;29216;51.248;6.808;2023-12-14T03:44:33;26.73;;;17.10;;
43248;SDS011;29216;51.248;6.808;2023-12-14T03:46:59;25.75;;;16.85;;
43248;SDS011;29216;51.248;6.808;2023-12-14T03:49:25;24.50;;;16.50;;
43248;SDS011;29216;51.248;6.808;2023-12-14T03:51:51;23.38;;;16.25;;
43248;SDS011;29216;51.248;6.808;2023-12-14T03:54:17;25.73;;;16.23;;
43248;SDS011;29216;51.248;6.808;2023-12-14T03:56:43;22.75;;;14.32;;
43248;SDS011;29216;51.248;6.808;2023-12-14T03:59:09;22.27;;;13.45;;
43248;SDS011;29216;51.248;6.808;2023-12-14T04:01:35;21.15;;;13.60;;
43248;SDS011;29216;51.248;6.808;2023-12-14T04:04:04;20.42;;;13.82;;
43248;SDS011;29216;51.248;6.808;2023-12-14T04:06:30;23.83;;;14.68;;
43248;SDS011;29216;51.248;6.808;2023-12-14T04:08:56;22.05;;;14.52;;
43248;SDS011;29216;51.248;6.808;2023-12-14T04:11:22;21.30;;;13.90;;
43248;SDS011;29216;51.248;6.808;2023-12-14T04:13:49;22.58;;;14.93;;
43248;SDS011;29216;51.248;6.808;2023-12-14T04:16:21;24.00;;;14.80;;
43248;SDS011;29216;51.248;6.808;2023-12-14T04:18:47;22.27;;;13.88;;
43248;SDS011;29216;51.248;6.808;2023-12-14T04:21:13;23.80;;;14.10;;
43248;SDS011;29216;51.248;6.808;2023-12-14T04:23:39;22.90;;;14.82;;
43248;SDS011;29216;51.248;6.808;2023-12-14T04:26:05;26.23;;;15.32;;
43248;SDS011;29216;51.248;6.808;2023-12-14T04:28:32;23.02;;;15.20;;
43248;SDS011;29216;51.248;6.808;2023-12-14T04:30:58;22.35;;;13.82;;
43248;SDS011;29216;51.248;6.808;2023-12-14T04:33:24;24.65;;;13.65;;
43248;SDS011;29216;51.248;6.808;2023-12-14T04:35:50;23.25;;;13.85;;
43248;SDS011;29216;51.248;6.808;2023-12-14T04:38:16;22.25;;;14.50;;
43248;SDS011;29216;51.248;6.808;2023-12-14T04:40:42;21.20;;;12.82;;
43248;SDS011;29216;51.248;6.808;2023-12-14T04:43:08;26.98;;;14.85;;
43248;SDS011;29216;51.248;6.808;2023-12-14T04:45:34;23.30;;;14.60;;
43248;SDS011;29216;51.248;6.808;2023-12-14T04:48:00;28.98;;;16.40;;
43248;SDS011;29216;51.248;6.808;2023-12-14T04:50:26;30.60;;;16.92;;
43248;SDS011;29216;51.248;6.808;2023-12-14T04:52:52;36.55;;;19.27;;
43248;SDS011;29216;51.248;6.808;2023-12-14T04:55:18;34.65;;;19.10;;
43248;SDS011;29216;51.248;6.808;2023-12-14T04:57:44;35.50;;;20.17;;
43248;SDS011;29216;51.248;6.808;2023-12-14T05:00:11;39.40;;;20.25;;
43248;SDS011;29216;51.248;6.808;2023-12-14T05:02:37;43.20;;;19.75;;
43248;SDS011;29216;51.248;6.808;2023-12-14T05:05:04;37.88;;;20.08;;
43248;SDS011;29216;51.248;6.808;2023-12-14T05:07:30;36.17;;;19.80;;
43248;SDS011;29216;51.248;6.808;2023-12-14T05:09:56;39.85;;;19.63;;
43248;SDS011;29216;51.248;6.808;2023-12-14T05:12:22;39.35;;;20.83;;
43248;SDS011;29216;51.248;6.808;2023-12-14T05:14:50;42.17;;;21.58;;
43248;SDS011;29216;51.248;6.808;2023-12-14T05:17:16;36.88;;;19.52;;
43248;SDS011;29216;51.248;6.808;2023-12-14T05:19:42;38.55;;;18.35;;
43248;SDS011;29216;51.248;6.808;2023-12-14T05:22:08;34.05;;;20.17;;
43248;SDS011;29216;51.248;6.808;2023-12-14T05:24:34;30.42;;;18.70;;
43248;SDS011;29216;51.248;6.808;2023-12-14T05:27:00;29.60;;;17.98;;
43248;SDS011;29216;51.248;6.808;2023-12-14T05:29:26;30.02;;;17.23;;
43248;SDS011;29216;51.248;6.808;2023-12-14T05:31:52;30.65;;;18.40;;
43248;SDS011;29216;51.248;6.808;2023-12-14T05:34:18;29.05;;;17.85;;
43248;SDS011;29216;51.248;6.808;2023-12-14T05:36:44;28.40;;;16.58;;
43248;SDS011;29216;51.248;6.808;2023-12-14T05:39:10;27.02;;;16.88;;
43248;SDS011;29216;51.248;6.808;2023-12-14T05:41:39;34.40;;;17.42;;
43248;SDS011;29216;51.248;6.808;2023-12-14T05:44:05;27.00;;;16.30;;
43248;SDS011;29216;51.248;6.808;2023-12-14T05:46:31;28.65;;;17.42;;
43248;SDS011;29216;51.248;6.808;2023-12-14T05:48:57;28.15;;;16.60;;
43248;SDS011;29216;51.248;6.808;2023-12-14T05:51:30;29.02;;;17.35;;
43248;SDS011;29216;51.248;6.808;2023-12-14T05:53:56;26.67;;;17.63;;
43248;SDS011;29216;51.248;6.808;2023-12-14T05:56:22;28.63;;;17.60;;
43248;SDS011;29216;51.248;6.808;2023-12-14T05:58:48;24.67;;;16.73;;
43248;SDS011;29216;51.248;6.808;2023-12-14T06:01:16;26.20;;;15.70;;
43248;SDS011;29216;51.248;6.808;2023-12-14T06:03:43;26.33;;;16.08;;
43248;SDS011;29216;51.248;6.808;2023-12-14T06:06:09;27.88;;;16.85;;
43248;SDS011;29216;51.248;6.808;2023-12-14T06:08:35;29.00;;;18.02;;
43248;SDS011;29216;51.248;6.808;2023-12-14T06:11:01;30.88;;;17.83;;
43248;SDS011;29216;51.248;6.808;2023-12-14T06:13:27;31.17;;;18.42;;
43248;SDS011;29216;51.248;6.808;2023-12-14T06:15:53;31.80;;;17.83;;
43248;SDS011;29216;51.248;6.808;2023-12-14T06:18:19;28.85;;;17.55;;
43248;SDS011;29216;51.248;6.808;2023-12-14T06:20:45;31.08;;;17.88;;
43248;SDS011;29216;51.248;6.808;2023-12-14T06:23:14;31.10;;;17.27;;
43248;SDS011;29216;51.248;6.808;2023-12-14T06:25:40;28.17;;;16.50;;
43248;SDS011;29216;51.248;6.808;2023-12-14T06:28:05;28.27;;;16.90;;
43248;SDS011;29216;51.248;6.808;2023-12-14T06:30:31;26.27;;;16.77;;
43248;SDS011;29216;51.248;6.808;2023-12-14T06:32:57;24.95;;;15.95;;
43248;SDS011;29216;51.248;6.808;2023-12-14T06:35:23;25.67;;;15.00;;
43248;SDS011;29216;51.248;6.808;2023-12-14T06:37:49;25.35;;;14.80;;
43248;SDS011;29216;51.248;6.808;2023-12-14T06:40:15;22.65;;;13.93;;
43248;SDS011;29216;51.248;6.808;2023-12-14T06:42:41;20.58;;;14.32;;
43248;SDS011;29216;51.248;6.808;2023-12-14T06:45:08;25.92;;;15.23;;
43248;SDS011;29216;51.248;6.808;2023-12-14T06:47:35;24.33;;;13.48;;
43248;SDS011;29216;51.248;6.808;2023-12-14T06:50:01;22.58;;;13.65;;
43248;SDS011;29216;51.248;6.808;2023-12-14T06:52:27;22.25;;;13.80;;
43248;SDS011;29216;51.248;6.808;2023-12-14T06:54:53;21.63;;;13.65;;
43248;SDS011;29216;51.248;6.808;2023-12-14T06:57:18;26.05;;;15.43;;
43248;SDS011;29216;51.248;6.808;2023-12-14T06:59:44;26.00;;;15.45;;
43248;SDS011;29216;51.248;6.808;2023-12-14T07:02:10;33.38;;;19.20;;
43248;SDS011;29216;51.248;6.808;2023-12-14T07:04:36;31.27;;;18.35;;
43248;SDS011;29216;51.248;6.808;2023-12-14T07:07:02;29.88;;;17.60;;
43248;SDS011;29216;51.248;6.808;2023-12-14T07:11:54;28.70;;;16.40;;
43248;SDS011;29216;51.248;6.808;2023-12-14T07:14:20;26.75;;;17.10;;
43248;SDS011;29216;51.248;6.808;2023-12-14T07:16:46;36.75;;;21.63;;
43248;SDS011;29216;51.248;6.808;2023-12-14T07:19:12;37.88;;;21.70;;
43248;SDS011;29216;51.248;6.808;2023-12-14T07:21:38;37.00;;;21.38;;
43248;SDS011;29216;51.248;6.808;2023-12-14T07:24:04;47.75;;;25.48;;
43248;SDS011;29216;51.248;6.808;2023-12-14T07:26:30;46.85;;;25.10;;
43248;SDS011;29216;51.248;6.808;2023-12-14T07:28:56;45.28;;;24.58;;
43248;SDS011;29216;51.248;6.808;2023-12-14T07:31:22;43.95;;;24.88;;
43248;SDS011;29216;51.248;6.808;2023-12-14T07:33:48;38.17;;;22.88;;
43248;SDS011;29216;51.248;6.808;2023-12-14T07:36:14;43.78;;;22.63;;
43248;SDS011;29216;51.248;6.808;2023-12-14T07:38:40;44.42;;;25.25;;
43248;SDS011;29216;51.248;6.808;2023-12-14T07:41:06;43.40;;;21.63;;
43248;SDS011;29216;51.248;6.808;2023-12-14T07:43:32;36.50;;;20.98;;
43248;SDS011;29216;51.248;6.808;2023-12-14T07:45:58;40.78;;;21.98;;
43248;SDS011;29216;51.248;6.808;2023-12-14T07:48:24;42.72;;;22.75;;
43248;SDS011;29216;51.248;6.808;2023-12-14T07:50:51;45.00;;;22.77;;
43248;SDS011;29216;51.248;6.808;2023-12-14T07:53:17;43.42;;;22.40;;
43248;SDS011;29216;51.248;6.808;2023-12-14T07:55:43;41.35;;;23.50;;
43248;SDS011;29216;51.248;6.808;2023-12-14T07:58:09;38.80;;;22.27;;
43248;SDS011;29216;51.248;6.808;2023-12-14T08:00:35;39.05;;;21.35;;
43248;SDS011;29216;51.248;6.808;2023-12-14T08:03:01;38.05;;;22.98;;
43248;SDS011;29216;51.248;6.808;2023-12-14T08:05:27;41.47;;;21.52;;
43248;SDS011;29216;51.248;6.808;2023-12-14T08:07:53;40.40;;;22.52;;
43248;SDS011;29216;51.248;6.808;2023-12-14T08:10:20;38.65;;;23.73;;
43248;SDS011;29216;51.248;6.808;2023-12-14T08:12:46;38.90;;;23.08;;
43248;SDS011;29216;51.248;6.808;2023-12-14T08:15:12;36.10;;;22.38;;
43248;SDS011;29216;51.248;6.808;2023-12-14T08:17:38;37.97;;;23.60;;
43248;SDS011;29216;51.248;6.808;2023-12-14T08:20:05;37.33;;;22.73;;
43248;SDS011;29216;51.248;6.808;2023-12-14T08:22:34;38.33;;;23.70;;
43248;SDS011;29216;51.248;6.808;2023-12-14T08:25:00;40.38;;;23.05;;
43248;SDS011;29216;51.248;6.808;2023-12-14T08:27:26;37.55;;;23.58;;
43248;SDS011;29216;51.248;6.808;2023-12-14T08:29:52;39.67;;;23.65;;
43248;SDS011;29216;51.248;6.808;2023-12-14T08:32:18;39.53;;;23.38;;
43248;SDS011;29216;51.248;6.808;2023-12-14T08:34:44;45.55;;;25.42;;
43248;SDS011;29216;51.248;6.808;2023-12-14T08:37:10;43.22;;;25.23;;
43248;SDS011;29216;51.248;6.808;2023-12-14T08:39:36;42.38;;;25.20;;
43248;SDS011;29216;51.248;6.808;2023-12-14T08:42:02;46.38;;;25.38;;
43248;SDS011;29216;51.248;6.808;2023-12-14T08:44:28;44.95;;;25.63;;
43248;SDS011;29216;51.248;6.808;2023-12-14T08:46:54;46.88;;;28.00;;
43248;SDS011;29216;51.248;6.808;2023-12-14T08:49:20;47.25;;;27.38;;
43248;SDS011;29216;51.248;6.808;2023-12-14T08:51:48;48.50;;;27.73;;
43248;SDS011;29216;51.248;6.808;2023-12-14T08:54:14;42.53;;;25.27;;
43248;SDS011;29216;51.248;6.808;2023-12-14T08:56:40;47.83;;;27.13;;
43248;SDS011;29216;51.248;6.808;2023-12-14T08:59:06;47.78;;;25.98;;
43248;SDS011;29216;51.248;6.808;2023-12-14T09:01:32;44.42;;;25.23;;
43248;SDS011;29216;51.248;6.808;2023-12-14T09:03:58;43.70;;;24.52;;
43248;SDS011;29216;51.248;6.808;2023-12-14T09:06:25;42.50;;;24.77;;
43248;SDS011;29216;51.248;6.808;2023-12-14T09:08:51;39.72;;;23.48;;
43248;SDS011;29216;51.248;6.808;2023-12-14T09:11:17;38.72;;;23.73;;
43248;SDS011;29216;51.248;6.808;2023-12-14T09:13:43;32.88;;;20.85;;
43248;SDS011;29216;51.248;6.808;2023-12-14T09:16:09;37.47;;;21.88;;
43248;SDS011;29216;51.248;6.808;2023-12-14T09:18:35;35.10;;;22.05;;
43248;SDS011;29216;51.248;6.808;2023-12-14T09:21:01;34.47;;;22.67;;
43248;SDS011;29216;51.248;6.808;2023-12-14T09:23:28;37.40;;;23.00;;
43248;SDS011;29216;51.248;6.808;2023-12-14T09:25:54;36.00;;;23.02;;
43248;SDS011;29216;51.248;6.808;2023-12-14T09:28:21;36.15;;;22.63;;
43248;SDS011;29216;51.248;6.808;2023-12-14T09:30:47;41.70;;;25.75;;
43248;SDS011;29216;51.248;6.808;2023-12-14T09:33:13;43.53;;;26.00;;
43248;SDS011;29216;51.248;6.808;2023-12-14T09:35:39;48.30;;;28.83;;
43248;SDS011;29216;51.248;6.808;2023-12-14T09:38:06;52.13;;;26.73;;
43248;SDS011;29216;51.248;6.808;2023-12-14T09:40:32;39.72;;;23.98;;
43248;SDS011;29216;51.248;6.808;2023-12-14T09:42:59;47.28;;;24.50;;
43248;SDS011;29216;51.248;6.808;2023-12-14T09:45:29;45.15;;;26.15;;
43248;SDS011;29216;51.248;6.808;2023-12-14T09:47:59;40.35;;;24.98;;
43248;SDS011;29216;51.248;6.808;2023-12-14T09:50:26;43.20;;;23.17;;
43248;SDS011;29216;51.248;6.808;2023-12-14T09:52:52;42.30;;;25.38;;
43248;SDS011;29216;51.248;6.808;2023-12-14T09:55:18;37.70;;;23.45;;
43248;SDS011;29216;51.248;6.808;2023-12-14T09:57:44;42.40;;;24.85;;
43248;SDS011;29216;51.248;6.808;2023-12-14T10:00:10;35.92;;;22.75;;
43248;SDS011;29216;51.248;6.808;2023-12-14T10:02:39;36.45;;;22.17;;
43248;SDS011;29216;51.248;6.808;2023-12-14T10:05:05;39.33;;;23.85;;
43248;SDS011;29216;51.248;6.808;2023-12-14T10:07:35;38.20;;;22.35;;
43248;SDS011;29216;51.248;6.808;2023-12-14T10:10:10;32.70;;;22.08;;
43248;SDS011;29216;51.248;6.808;2023-12-14T10:12:51;31.00;;;20.88;;
43248;SDS011;29216;51.248;6.808;2023-12-14T10:15:18;35.85;;;21.63;;
43248;SDS011;29216;51.248;6.808;2023-12-14T10:17:44;31.95;;;20.45;;
43248;SDS011;29216;51.248;6.808;2023-12-14T10:20:18;31.00;;;21.70;;
43248;SDS011;29216;51.248;6.808;2023-12-14T10:22:46;40.42;;;23.27;;
43248;SDS011;29216;51.248;6.808;2023-12-14T10:25:14;37.80;;;22.92;;
43248;SDS011;29216;51.248;6.808;2023-12-14T10:27:40;35.88;;;23.65;;
43248;SDS011;29216;51.248;6.808;2023-12-14T10:30:08;35.15;;;23.27;;
43248;SDS011;29216;51.248;6.808;2023-12-14T10:32:37;37.78;;;23.65;;
43248;SDS011;29216;51.248;6.808;2023-12-14T10:35:04;33.20;;;21.23;;
43248;SDS011;29216;51.248;6.808;2023-12-14T10:37:31;29.48;;;19.25;;
43248;SDS011;29216;51.248;6.808;2023-12-14T10:39:58;33.50;;;19.92;;
43248;SDS011;29216;51.248;6.808;2023-12-14T10:42:25;30.92;;;19.17;;
43248;SDS011;29216;51.248;6.808;2023-12-14T10:44:55;31.55;;;18.77;;
43248;SDS011;29216;51.248;6.808;2023-12-14T10:47:21;32.67;;;19.67;;
43248;SDS011;29216;51.248;6.808;2023-12-14T10:49:48;26.52;;;18.20;;
43248;SDS011;29216;51.248;6.808;2023-12-14T10:52:15;28.73;;;18.38;;
43248;SDS011;29216;51.248;6.808;2023-12-14T10:54:42;24.85;;;17.25;;
43248;SDS011;29216;51.248;6.808;2023-12-14T10:57:09;25.65;;;17.50;;
43248;SDS011;29216;51.248;6.808;2023-12-14T10:59:35;26.13;;;17.17;;
43248;SDS011;29216;51.248;6.808;2023-12-14T11:02:06;27.17;;;17.52;;
43248;SDS011;29216;51.248;6.808;2023-12-14T11:04:56;25.05;;;17.17;;
43248;SDS011;29216;51.248;6.808;2023-12-14T11:10:06;22.52;;;15.10;;
43248;SDS011;29216;51.248;6.808;2023-12-14T11:12:33;21.48;;;15.00;;
43248;SDS011;29216;51.248;6.808;2023-12-14T11:14:59;26.33;;;15.40;;
43248;SDS011;29216;51.248;6.808;2023-12-14T11:17:25;28.40;;;15.80;;
43248;SDS011;29216;51.248;6.808;2023-12-14T11:19:54;33.50;;;16.33;;
43248;SDS011;29216;51.248;6.808;2023-12-14T11:22:23;30.23;;;17.08;;
43248;SDS011;29216;51.248;6.808;2023-12-14T11:24:51;31.95;;;16.45;;
43248;SDS011;29216;51.248;6.808;2023-12-14T11:27:19;31.65;;;16.35;;
43248;SDS011;29216;51.248;6.808;2023-12-14T11:29:45;32.33;;;15.60;;
43248;SDS011;29216;51.248;6.808;2023-12-14T11:32:13;30.00;;;15.90;;
43248;SDS011;29216;51.248;6.808;2023-12-14T11:34:39;31.10;;;16.90;;
43248;SDS011;29216;51.248;6.808;2023-12-14T11:37:05;30.63;;;17.33;;
43248;SDS011;29216;51.248;6.808;2023-12-14T11:39:32;24.92;;;16.23;;
43248;SDS011;29216;51.248;6.808;2023-12-14T11:41:59;23.20;;;15.13;;
43248;SDS011;29216;51.248;6.808;2023-12-14T11:44:25;24.98;;;15.52;;
43248;SDS011;29216;51.248;6.808;2023-12-14T11:46:51;21.05;;;14.10;;
43248;SDS011;29216;51.248;6.808;2023-12-14T11:49:17;20.15;;;14.07;;
43248;SDS011;29216;51.248;6.808;2023-12-14T11:51:45;18.83;;;13.50;;
43248;SDS011;29216;51.248;6.808;2023-12-14T11:54:12;19.88;;;14.38;;
43248;SDS011;29216;51.248;6.808;2023-12-14T11:56:38;17.05;;;12.65;;
43248;SDS011;29216;51.248;6.808;2023-12-14T11:59:04;17.98;;;13.00;;
43248;SDS011;29216;51.248;6.808;2023-12-14T12:01:30;21.33;;;12.98;;
43248;SDS011;29216;51.248;6.808;2023-12-14T12:04:03;15.27;;;11.13;;
43248;SDS011;29216;51.248;6.808;2023-12-14T12:06:35;16.98;;;12.00;;
43248;SDS011;29216;51.248;6.808;2023-12-14T12:09:01;18.20;;;13.35;;
43248;SDS011;29216;51.248;6.808;2023-12-14T12:11:32;16.80;;;11.98;;
43248;SDS011;29216;51.248;6.808;2023-12-14T12:13:58;18.48;;;12.50;;
43248;SDS011;29216;51.248;6.808;2023-12-14T12:16:25;16.05;;;11.35;;
43248;SDS011;29216;51.248;6.808;2023-12-14T12:18:51;15.38;;;11.23;;
43248;SDS011;29216;51.248;6.808;2023-12-14T12:21:17;15.40;;;11.43;;
43248;SDS011;29216;51.248;6.808;2023-12-14T12:23:43;15.60;;;10.90;;
43248;SDS011;29216;51.248;6.808;2023-12-14T12:26:09;16.55;;;10.65;;
43248;SDS011;29216;51.248;6.808;2023-12-14T12:28:36;16.23;;;10.85;;
43248;SDS011;29216;51.248;6.808;2023-12-14T12:31:02;14.52;;;9.82;;
43248;SDS011;29216;51.248;6.808;2023-12-14T12:33:29;15.73;;;8.75;;
43248;SDS011;29216;51.248;6.808;2023-12-14T12:35:56;12.60;;;7.90;;
43248;SDS011;29216;51.248;6.808;2023-12-14T12:38:22;14.13;;;8.70;;
43248;SDS011;29216;51.248;6.808;2023-12-14T12:40:48;12.73;;;8.82;;
43248;SDS011;29216;51.248;6.808;2023-12-14T12:43:14;15.35;;;8.15;;
43248;SDS011;29216;51.248;6.808;2023-12-14T12:45:40;10.82;;;7.97;;
43248;SDS011;29216;51.248;6.808;2023-12-14T12:48:06;13.50;;;7.60;;
43248;SDS011;29216;51.248;6.808;2023-12-14T12:50:32;9.48;;;7.13;;
43248;SDS011;29216;51.248;6.808;2023-12-14T12:52:58;12.35;;;6.78;;
43248;SDS011;29216;51.248;6.808;2023-12-14T12:55:24;10.85;;;6.90;;
43248;SDS011;29216;51.248;6.808;2023-12-14T12:57:50;10.10;;;7.35;;
43248;SDS011;29216;51.248;6.808;2023-12-14T13:00:16;10.85;;;6.90;;
43248;SDS011;29216;51.248;6.808;2023-12-14T13:02:44;11.27;;;7.38;;
43248;SDS011;29216;51.248;6.808;2023-12-14T13:05:10;14.07;;;7.90;;
43248;SDS011;29216;51.248;6.808;2023-12-14T13:07:36;13.90;;;7.25;;
43248;SDS011;29216;51.248;6.808;2023-12-14T13:10:03;12.65;;;6.80;;
43248;SDS011;29216;51.248;6.808;2023-12-14T13:12:31;10.27;;;6.53;;
43248;SDS011;29216;51.248;6.808;2023-12-14T13:14:57;7.93;;;5.78;;
43248;SDS011;29216;51.248;6.808;2023-12-14T13:17:23;8.50;;;5.68;;
43248;SDS011;29216;51.248;6.808;2023-12-14T13:19:49;9.10;;;5.85;;
43248;SDS011;29216;51.248;6.808;2023-12-14T13:22:15;6.68;;;5.13;;
43248;SDS011;29216;51.248;6.808;2023-12-14T13:24:41;9.68;;;4.65;;
43248;SDS011;29216;51.248;6.808;2023-12-14T13:27:07;7.88;;;5.38;;
43248;SDS011;29216;51.248;6.808;2023-12-14T13:29:33;8.02;;;5.40;;
43248;SDS011;29216;51.248;6.808;2023-12-14T13:32:00;7.88;;;5.65;;
43248;SDS011;29216;51.248;6.808;2023-12-14T13:34:26;9.85;;;6.00;;
43248;SDS011;29216;51.248;6.808;2023-12-14T13:36:57;8.35;;;5.18;;
43248;SDS011;29216;51.248;6.808;2023-12-14T13:39:25;8.23;;;6.00;;
43248;SDS011;29216;51.248;6.808;2023-12-14T13:41:51;9.30;;;6.35;;
43248;SDS011;29216;51.248;6.808;2023-12-14T13:44:17;10.30;;;6.45;;
43248;SDS011;29216;51.248;6.808;2023-12-14T13:46:43;7.97;;;5.75;;
43248;SDS011;29216;51.248;6.808;2023-12-14T13:49:09;10.45;;;6.35;;
43248;SDS011;29216;51.248;6.808;2023-12-14T13:51:35;9.40;;;6.15;;
43248;SDS011;29216;51.248;6.808;2023-12-14T13:54:01;8.32;;;6.10;;
43248;SDS011;29216;51.248;6.808;2023-12-14T13:56:27;9.77;;;6.35;;
43248;SDS011;29216;51.248;6.808;2023-12-14T13:58:53;11.27;;;7.10;;
43248;SDS011;29216;51.248;6.808;2023-12-14T14:01:20;9.70;;;6.40;;
43248;SDS011;29216;51.248;6.808;2023-12-14T14:03:46;7.90;;;6.35;;
43248;SDS011;29216;51.248;6.808;2023-12-14T14:06:12;9.77;;;6.28;;
43248;SDS011;29216;51.248;6.808;2023-12-14T14:08:39;11.43;;;6.68;;
43248;SDS011;29216;51.248;6.808;2023-12-14T14:11:05;11.15;;;6.60;;
43248;SDS011;29216;51.248;6.808;2023-12-14T14:13:31;8.38;;;6.38;;
43248;SDS011;29216;51.248;6.808;2023-12-14T14:15:58;10.77;;;7.05;;
43248;SDS011;29216;51.248;6.808;2023-12-14T14:18:24;8.40;;;6.43;;
43248;SDS011;29216;51.248;6.808;2023-12-14T14:20:50;7.22;;;5.75;;
43248;SDS011;29216;51.248;6.808;2023-12-14T14:23:16;10.75;;;7.00;;